Victory, Wisconsin
Current Conditions -  °F | °C
As of 10:35 AM on Friday 31 Oct 2014 (Local Time) from KY51 Reporting Station
Broken Clouds Broken Clouds  
Wind Chill: 23°   Ceiling: 3300
Heat Index: 34°   Visibility: 10mi
Dew Point: 22°   Wind: 17mph
Humidity: 62%   Direction: 330°NNW
Pressure: 30.39"   Gusts: 28mph
Location:  43.4497°N, 91.1446°W
Report Text: KY51 311535Z AUTO 33015G24KT 10SM BKN033 01/M05 A3039 RMK AO1 T00111055
Loading
Personal Weather Stations






























Interactive Weather Map
Tropical Storm Tracking
New forecast layout! Learn more

10-Day Weather Forecast

Advertisements
Track Severe Weather on mobile